Nearby METAR Reports

 

ENCN - Kristiansand/Kje, Norway
Distance from station: N 17km
Oppdatert: 23/07/2019 11:50
Hovedsaklig skyet
Hovedsaklig skyet
 Vind fra S
Vind: S 17 km/h
Temperatur: 21°C
Duggpunkt: 19°C
Fuktighet: 88%
Barometer: 1018 hPa
Clouds: Hovedsaklig skyet
Visibility: 10 km
Cloud details: Few Clouds 305 m
Hovedsaklig skyet 1189 m
2019/07/23 09:50 ENCN 230950Z 19009KT 9999 FEW010 BKN039 21/19 Q1018
EKSN - Sindal Airport, Denmark
Distance from station: ØSØ 145km
Oppdatert: 23/07/2019 11:50
Few Clouds
Few Clouds
 Vind fra V
Vind: V 26 km/h
Temperatur: 21°C
Duggpunkt: 17°C
Fuktighet: 78%
Barometer: 1018 hPa
Clouds: Few Clouds
Visibility: 10 km
Cloud details: Few Clouds 762 m
2019/07/23 09:50 EKSN 230950Z 27014KT 9999 FEW025 21/17 Q1018
 
EKYT - Alborg, Denmark
Distance from station: SØ 153km
Oppdatert: 23/07/2019 11:50
Klart
Klart
 Vind fra VSV
Vind: VSV 30 km/h
Temperatur: 21°C
Duggpunkt: 18°C
Fuktighet: 83%
Barometer: 1019 hPa
Clouds: Klart
Visibility: 10 km
2019/07/23 09:50 EKYT 230950Z AUTO 24016KT 9999 NCD 21/18 Q1019
ENSN - Skien/Geiterygge, Norway
Distance from station: NØ 153km
Oppdatert: 09/11/2015 09:50
NOT Current
Klart
Klart
 Vind fra SSV
Vind: SSV 19 km/h, Vindkast: 41 km/h
Temperatur: 7°C
Wind Chill: 4°C
Duggpunkt: 3°C
Fuktighet: 76%
Barometer: 1000 hPa
Oversikt: Klart
Visibility: greater than 10 km
2015/11/09 08:50 ENSN 090850Z 20010G22KT 150V240 CAVOK 07/03 Q1000
 
ENZV - Stavanger/Sola(A, Norway
Distance from station: NV 166km
Oppdatert: 23/07/2019 11:50
Hovedsaklig skyet
Hovedsaklig skyet
 Vind fra SSV
Vind: SSV 15 km/h
Temperatur: 20°C
Duggpunkt: 17°C
Fuktighet: 83%
Barometer: 1018 hPa
Clouds: Hovedsaklig skyet
Visibility: 10 km
Cloud details: Few Clouds 152 m
Delvis skyet 1067 m
Hovedsaklig skyet 1829 m
2019/07/23 09:50 ENZV 230950Z 20008KT 9999 FEW005 SCT035 BKN060 20/17 Q1018 NOSIG
ENNO - Notodden, Norway
Distance from station: NNØ 182km
Oppdatert: 23/07/2019 11:50
Few Clouds
Few Clouds
 Vind fra ØSØ
Vind: ØSØ 13 km/h
Temperatur: 23°C
Duggpunkt: 15°C
Fuktighet: 61%
Barometer: 1016 hPa
Clouds: Few Clouds
Visibility: 10 km
Cloud details: Few Clouds 1524 m
2019/07/23 09:50 ENNO 230950Z 11007KT 9999 FEW050 23/15 Q1016
 
ENTO - Torp (civ/Nor-Af, Norway
Distance from station: NØ 183km
Oppdatert: 23/07/2019 11:50
Few Clouds
Few Clouds
 Vind fra SSV
Vind: SSV 7 km/h
Temperatur: 23°C
Duggpunkt: 17°C
Fuktighet: 69%
Barometer: 1016 hPa
Clouds: Few Clouds
Visibility: 10 km
Cloud details: Few Clouds 610 m
2019/07/23 09:50 ENTO 230950Z 21004KT 110V230 9999 FEW020 23/17 Q1016 NOSIG
EKKA - Karup (dan-Afb), Denmark
Distance from station: SSØ 209km
Oppdatert: 23/07/2019 11:50
Delvis skyet
Delvis skyet
 Vind fra V
Vind: V 19 km/h
Temperatur: 24°C
Duggpunkt: 18°C
Fuktighet: 69%
Barometer: 1020 hPa
Clouds: Delvis skyet
Visibility: 10 km
Cloud details: Delvis skyet 671 m
2019/07/23 09:50 EKKA 230950Z AUTO 27010KT 9999 SCT022/// 24/18 Q1020 NOSIG
 
ENHD - Haugesund/Karmoy, Norway
Distance from station: NV 216km
Oppdatert: 23/07/2019 11:50
Hovedsaklig skyet
Hovedsaklig skyet
 Vind fra S
Vind: S 15 km/h
Temperatur: 18°C
Duggpunkt: 16°C
Fuktighet: 88%
Barometer: 1017 hPa
Clouds: Hovedsaklig skyet
Visibility: 9 km
Cloud details: Delvis skyet 183 m
Hovedsaklig skyet 305 m
2019/07/23 09:50 ENHD 230950Z 19008KT 9000 SCT006 BKN010 18/16 Q1017
ENRY - Rygge (nor-Afb), Norway
Distance from station: NØ 216km
Oppdatert: 23/07/2019 11:50
Delvis skyet
Delvis skyet
 Vind fra varies
Vind: varies 4 km/h
Temperatur: 21°C
Duggpunkt: 16°C
Fuktighet: 73%
Barometer: 1016 hPa
Clouds: Delvis skyet
Visibility: 10 km
Cloud details: Delvis skyet 518 m
2019/07/23 09:50 ENRY 230950Z VRB02KT 9999 SCT017 21/16 Q1016 NOSIG
 
ESGP - Goteborg/Save (a, Sweden
Distance from station: Ø 230km
Oppdatert: 02/01/2017 11:20
NOT Current
Klart
Klart
 Vind fra calm
Vind: Stille
Temperatur: -2°C
Duggpunkt: -4°C
Fuktighet: 86%
Barometer: 1012 hPa
Clouds: Klart
Visibility: 10 km
2017/01/02 10:20 ESGP 021020Z AUTO 00000KT 9999 NCD M02/M04 Q1012
EKVJ - Stauning Airport, Denmark
Distance from station: S 233km
Oppdatert: 23/07/2019 11:50
Few Clouds
Few Clouds
 Vind fra V
Vind: V 19 km/h
Temperatur: 20°C
Duggpunkt: 18°C
Fuktighet: 88%
Barometer: 1021 hPa
Clouds: Few Clouds
Visibility: 10 km
Cloud details: Few Clouds 366 m
2019/07/23 09:50 EKVJ 230950Z 26010KT 9999 FEW012 20/18 Q1021
 
ENSO - Stord/Soerstokke, Norway
Distance from station: NV 246km
Oppdatert: 22/07/2019 19:20
NOT Current
Tåke, Overskyet
Tåke, Overskyet
 Vind fra SSV
Vind: SSV 24 km/h, Vindkast: 43 km/h
Temperatur: 15°C
Duggpunkt: 15°C
Fuktighet: 100%
Barometer: 1010 hPa
Oversikt: Tåke
Clouds: Overskyet
Visibility: 1 km
Cloud details: Overskyet 61 m
2019/07/22 17:20 ENSO 221720Z 20013G23KT 160V260 0800 FG VV002 15/15 Q1010
EKAH - Tirstrup (civ/Mi, Denmark
Distance from station: SØ 252km
Oppdatert: 23/07/2019 11:50
Few Clouds
Few Clouds
 Vind fra V
Vind: V 26 km/h
Temperatur: 25°C
Duggpunkt: 18°C
Fuktighet: 65%
Barometer: 1020 hPa
Clouds: Few Clouds
Visibility: 10 km
Cloud details: Few Clouds 792 m
2019/07/23 09:50 EKAH 230950Z AUTO 28014KT 9999NDV FEW026/// 25/18 Q1020
 
ESGT - Trollhattan (pvt, Sweden
Distance from station: Ø 255km
Oppdatert: 23/07/2019 11:50
Overskyet
Overskyet
 Vind fra SV
Vind: SV 15 km/h
Temperatur: 19°C
Duggpunkt: 16°C
Fuktighet: 83%
Barometer: 1017 hPa
Clouds: Overskyet
Visibility: 10 km
Cloud details: Few Clouds 396 m
Overskyet 579 m
2019/07/23 09:50 ESGT 230950Z AUTO 22008KT 190V260 9999 FEW013/// OVC019/// 19/16 Q1017
ESGG - Goteborg/Landvet, Sweden
Distance from station: Ø 257km
Oppdatert: 23/07/2019 11:50
Mist, Overskyet
Mist, Overskyet
 Vind fra VSV
Vind: VSV 15 km/h
Temperatur: 16°C
Duggpunkt: 15°C
Fuktighet: 94%
Barometer: 1018 hPa
Oversikt: Mist
Clouds: Overskyet
Visibility: 3 km
Cloud details: Overskyet 61 m
2019/07/23 09:50 ESGG 230950Z 25008KT 2500 BR VV002 16/15 Q1018
 
EKBI - Billund Airport, Denmark
Distance from station: SSØ 269km
Oppdatert: 23/07/2019 11:50
Hovedsaklig skyet
Hovedsaklig skyet
 Vind fra V
Vind: V 19 km/h
Temperatur: 23°C
Duggpunkt: 17°C
Fuktighet: 69%
Barometer: 1021 hPa
Clouds: Hovedsaklig skyet
Visibility: 10 km
Cloud details: Hovedsaklig skyet 671 m
2019/07/23 09:50 EKBI 230950Z AUTO 26010KT 9999 BKN022/// 23/17 Q1021
EKHN - Horns Rev B Heli, Denmark
Distance from station: S 274km
Oppdatert: 09/08/2016 14:20
NOT Current
Few Clouds
Few Clouds
 Vind fra VNV
Vind: VNV 50 km/h, Vindkast: 72 km/h
Temperatur: 14°C
Duggpunkt: 10°C
Fuktighet: 77%
Barometer: 1018 hPa
Clouds: Few Clouds
Visibility: 10 km
Cloud details: Few Clouds 1158 m
Few Clouds 2438 m
2016/08/09 12:20 EKHN 091220Z AUTO 29027G39KT 270V340 9999NDV FEW038/// FEW080/// 14/10 Q1018
 
ESIB - Satenas (swe-Afb, Sweden
Distance from station: Ø 277km
Oppdatert: 23/07/2019 11:50
Overskyet
Overskyet
 Vind fra VSV
Vind: VSV 15 km/h
Temperatur: 19°C
Duggpunkt: 18°C
Fuktighet: 94%
Barometer: 1016 hPa
Clouds: Overskyet
Visibility: 10 km
Cloud details: Few Clouds 366 m
Overskyet 732 m
2019/07/23 09:50 ESIB 230950Z AUTO 25008KT 9999 FEW012/// OVC024/// 19/18 Q1016
EKHR - Horns Rev B Heli, Denmark
Distance from station: S 282km
Oppdatert: 04/10/2016 06:20
NOT Current
Klart
Klart
 Vind fra Ø
Vind: Ø 4 km/h
Temperatur: 11°C
Duggpunkt: -49°C
Fuktighet: 0%
Barometer: 1038 hPa
Clouds: Klart
Visibility: 10 km
2016/10/04 04:20 EKHR 040420Z AUTO 08002KT 9999NDV NCD 11/M49 Q1038